createdAt,value
2022-09-24T00:00:00.151Z,100959.38
2022-09-24T00:02:28.731Z,100960.78
2022-09-24T00:04:57.884Z,100958.28
2022-09-24T00:07:26.451Z,100951.91
2022-09-24T00:09:54.946Z,100947.56
2022-09-24T00:12:23.473Z,100947.41
2022-09-24T00:14:51.974Z,100940.16
2022-09-24T00:17:21.860Z,100942.63
2022-09-24T00:19:50.423Z,100948.94
2022-09-24T00:22:18.924Z,100949.06
2022-09-24T00:25:04.807Z,100956.19
2022-09-24T00:27:33.355Z,100945.94
2022-09-24T00:30:01.868Z,100945.44
2022-09-24T00:32:31.750Z,100955.25
2022-09-24T00:35:00.270Z,100945.44
2022-09-24T00:37:29.146Z,100951.63
2022-09-24T00:39:57.661Z,100949.09
2022-09-24T00:42:26.181Z,100953.84
2022-09-24T00:44:56.417Z,100951.34
2022-09-24T00:47:34.748Z,100956.66
2022-09-24T00:50:14.431Z,100946.31
2022-09-24T00:52:46.643Z,100945.75
2022-09-24T00:55:16.651Z,100946.03
2022-09-24T00:57:46.294Z,100938.59
2022-09-24T01:00:16.035Z,100943.59
2022-09-24T01:02:48.542Z,100931.16
2022-09-24T01:05:17.889Z,100938.91
2022-09-24T01:07:48.750Z,100937.22
2022-09-24T01:10:40.960Z,100937.88
2022-09-24T01:13:22.382Z,100934.28
2022-09-24T01:16:00.727Z,100942.13
2022-09-24T01:18:38.276Z,100934.28
2022-09-24T01:21:26.460Z,100932.84
2022-09-24T01:24:28.251Z,100933.19
2022-09-24T01:27:06.869Z,100932.63
2022-09-24T01:30:01.663Z,100932.63
2022-09-24T01:32:37.406Z,100926.22
2022-09-24T01:35:14.003Z,100923.41
2022-09-24T01:37:46.381Z,100921.75
2022-09-24T01:40:16.120Z,100914.63
2022-09-24T01:42:46.221Z,100914.16
2022-09-24T01:45:17.456Z,100920.28
2022-09-24T01:47:46.892Z,100914.72
2022-09-24T01:50:18.293Z,100909.06
2022-09-24T01:52:53.087Z,100908.75
2022-09-24T01:55:26.477Z,100906.41
2022-09-24T01:58:01.248Z,100908.13
2022-09-24T02:00:31.371Z,100892.88
2022-09-24T02:03:07.684Z,100900.94
2022-09-24T02:05:41.050Z,100897.94
2022-09-24T02:08:16.107Z,100890.88
2022-09-24T02:10:49.189Z,100888.41
2022-09-24T02:13:19.853Z,100881.44
2022-09-24T02:15:53.124Z,100882.81
2022-09-24T02:18:26.848Z,100884.25
2022-09-24T02:20:56.236Z,100886.19
2022-09-24T02:23:27.153Z,100883.31
2022-09-24T02:25:59.713Z,100882.06
2022-09-24T02:28:28.442Z,100885.88
2022-09-24T02:31:03.563Z,100880.47
2022-09-24T02:33:51.639Z,100878.97
2022-09-24T02:36:20.528Z,100876.03
2022-09-24T02:38:49.355Z,100875.81
2022-09-24T02:41:18.146Z,100881.13
2022-09-24T02:43:47.522Z,100867.75
2022-09-24T02:46:17.515Z,100866.41
2022-09-24T02:48:46.013Z,100868.41
2022-09-24T02:51:14.660Z,100851.94
2022-09-24T02:53:43.189Z,100858.63
2022-09-24T02:56:11.728Z,100854.16
2022-09-24T02:58:40.488Z,100857.16
2022-09-24T03:01:09.015Z,100859.72
2022-09-24T03:03:38.862Z,100847.75
2022-09-24T03:06:07.841Z,100853.81
2022-09-24T03:08:36.407Z,100849.00
2022-09-24T03:11:05.250Z,100842.66
2022-09-24T03:13:33.785Z,100840.47
2022-09-24T03:16:02.566Z,100842.81
2022-09-24T03:18:31.149Z,100833.38
2022-09-24T03:21:03.567Z,100838.91
2022-09-24T03:23:32.192Z,100830.81
2022-09-24T03:26:00.775Z,100827.50
2022-09-24T03:28:29.907Z,100836.81
2022-09-24T03:31:00.493Z,100837.13
2022-09-24T03:33:31.357Z,100823.19
2022-09-24T03:36:03.785Z,100822.91
2022-09-24T03:38:32.756Z,100825.13
2022-09-24T03:41:01.893Z,100822.38
2022-09-24T03:43:31.409Z,100825.97
2022-09-24T03:46:00.159Z,100816.78
2022-09-24T03:48:30.119Z,100820.41
2022-09-24T03:51:04.319Z,100817.03
2022-09-24T03:53:32.989Z,100814.25
2022-09-24T03:56:02.843Z,100820.41
2022-09-24T03:58:32.042Z,100811.09
2022-09-24T04:01:00.583Z,100816.16
2022-09-24T04:03:29.365Z,100808.75
2022-09-24T04:05:57.863Z,100806.78
2022-09-24T04:08:27.853Z,100803.53
2022-09-24T04:10:56.451Z,100809.59
2022-09-24T04:13:25.153Z,100817.81
2022-09-24T04:15:55.056Z,100810.31
2022-09-24T04:18:24.256Z,100815.34
2022-09-24T04:20:52.983Z,100813.38
2022-09-24T04:23:21.524Z,100809.75
2022-09-24T04:25:51.362Z,100803.59
2022-09-24T04:28:19.923Z,100809.50
2022-09-24T04:30:48.458Z,100800.56
2022-09-24T04:33:17.060Z,100812.78
2022-09-24T04:35:47.613Z,100804.41
2022-09-24T04:38:16.252Z,100808.91
2022-09-24T04:40:45.467Z,100810.16
2022-09-24T04:43:15.502Z,100805.75
2022-09-24T04:45:45.820Z,100803.94
2022-09-24T04:48:14.794Z,100796.75
2022-09-24T04:50:46.322Z,100802.66
2022-09-24T04:53:15.314Z,100813.59
2022-09-24T04:55:44.560Z,100802.50
2022-09-24T04:58:14.461Z,100813.47
2022-09-24T05:00:43.294Z,100804.16
2022-09-24T05:03:11.905Z,100804.06
2022-09-24T05:05:40.479Z,100807.88
2022-09-24T05:08:09.012Z,100811.34
2022-09-24T05:10:37.509Z,100804.75
2022-09-24T05:13:06.085Z,100813.00
2022-09-24T05:15:40.880Z,100814.19
2022-09-24T05:18:11.498Z,100810.88
2022-09-24T05:20:40.016Z,100812.19
2022-09-24T05:23:08.564Z,100811.97
2022-09-24T05:25:58.197Z,100822.66
2022-09-24T05:28:26.075Z,100819.78
2022-09-24T05:31:00.227Z,100816.09
2022-09-24T05:33:28.893Z,100819.22
2022-09-24T05:35:58.605Z,100819.19
2022-09-24T05:38:27.151Z,100818.97
2022-09-24T05:40:55.737Z,100823.38
2022-09-24T05:43:27.692Z,100827.50
2022-09-24T05:45:58.645Z,100826.38
2022-09-24T05:48:28.544Z,100825.53
2022-09-24T05:50:57.363Z,100826.34
2022-09-24T05:53:26.332Z,100825.03
2022-09-24T05:55:54.885Z,100828.59
2022-09-24T05:58:23.445Z,100823.31
2022-09-24T06:00:51.991Z,100825.03
2022-09-24T06:03:21.699Z,100832.78
2022-09-24T06:05:52.833Z,100832.16
2022-09-24T06:08:22.325Z,100825.25
2022-09-24T06:10:51.145Z,100830.63
2022-09-24T06:13:21.079Z,100825.31
2022-09-24T06:15:49.664Z,100834.53
2022-09-24T06:18:18.459Z,100832.16
2022-09-24T06:20:47.033Z,100832.88
2022-09-24T06:23:16.971Z,100837.63
2022-09-24T06:25:50.000Z,100833.19
2022-09-24T06:28:18.592Z,100835.19
2022-09-24T06:30:47.163Z,100847.03
2022-09-24T06:33:15.774Z,100848.13
2022-09-24T06:35:45.631Z,100849.41
2022-09-24T06:38:17.650Z,100850.94
2022-09-24T06:40:48.442Z,100854.06
2022-09-24T06:43:18.914Z,100849.91
2022-09-24T06:45:47.497Z,100852.59
2022-09-24T06:48:17.800Z,100853.34
2022-09-24T06:50:47.458Z,100857.69
2022-09-24T06:53:17.624Z,100852.81
2022-09-24T06:55:47.043Z,100858.25
2022-09-24T06:58:18.171Z,100856.59
2022-09-24T07:00:54.378Z,100858.28
2022-09-24T07:03:23.297Z,100856.38
2022-09-24T07:05:51.837Z,100860.47
2022-09-24T07:08:22.075Z,100861.84
2022-09-24T07:10:52.487Z,100855.03
2022-09-24T07:13:22.163Z,100864.72
2022-09-24T07:15:52.231Z,100861.69
2022-09-24T07:18:21.457Z,100862.34
2022-09-24T07:20:54.130Z,100872.88
2022-09-24T07:23:24.737Z,100871.91
2022-09-24T07:25:57.696Z,100868.59
2022-09-24T07:28:26.668Z,100868.81
2022-09-24T07:30:59.544Z,100872.72
2022-09-24T07:33:28.250Z,100874.22
2022-09-24T07:35:56.814Z,100871.06
2022-09-24T07:38:27.061Z,100873.84
2022-09-24T07:40:59.493Z,100879.97
2022-09-24T07:43:28.617Z,100874.78
2022-09-24T07:45:58.155Z,100885.50
2022-09-24T07:48:26.922Z,100881.16
2022-09-24T07:50:55.922Z,100877.66
2022-09-24T07:53:25.844Z,100882.19
2022-09-24T07:55:56.334Z,100885.28
2022-09-24T07:58:24.880Z,100877.22
2022-09-24T08:00:53.511Z,100881.28
2022-09-24T08:03:22.184Z,100891.53
2022-09-24T08:05:50.807Z,100880.56
2022-09-24T08:08:20.824Z,100886.47
2022-09-24T08:10:50.724Z,100889.13
2022-09-24T08:13:22.697Z,100885.72
2022-09-24T08:15:59.512Z,100893.91
2022-09-24T08:18:28.936Z,100894.09
2022-09-24T08:20:57.443Z,100892.69
2022-09-24T08:23:25.987Z,100887.22
2022-09-24T08:25:57.116Z,100894.47
2022-09-24T08:28:25.668Z,100890.28
2022-09-24T08:30:57.999Z,100887.09
2022-09-24T08:33:26.646Z,100888.31
2022-09-24T08:35:55.247Z,100889.59
2022-09-24T08:38:23.804Z,100889.72
2022-09-24T08:41:03.172Z,100892.13
2022-09-24T08:43:42.067Z,100893.44
2022-09-24T08:46:33.665Z,100895.81
2022-09-24T08:49:05.106Z,100884.88
2022-09-24T08:51:40.577Z,100891.09
2022-09-24T08:54:13.687Z,100889.53
2022-09-24T08:56:46.843Z,100885.16
2022-09-24T08:59:28.803Z,100886.06
2022-09-24T09:02:14.600Z,100895.22
2022-09-24T09:04:54.857Z,100889.78
2022-09-24T09:07:27.645Z,100895.88
2022-09-24T09:10:01.664Z,100893.72
2022-09-24T09:12:38.600Z,100896.69
2022-09-24T09:15:12.793Z,100900.41
2022-09-24T09:17:47.567Z,100897.06
2022-09-24T09:20:20.443Z,100903.34
2022-09-24T09:22:51.382Z,100904.97
2022-09-24T09:25:23.801Z,100897.59
2022-09-24T09:27:59.569Z,100907.91
2022-09-24T09:30:31.251Z,100902.16
2022-09-24T09:33:21.689Z,100904.97
2022-09-24T09:36:00.512Z,100901.34
2022-09-24T09:38:36.880Z,100904.34
2022-09-24T09:41:13.484Z,100900.47
2022-09-24T09:43:44.668Z,100901.84
2022-09-24T09:46:19.599Z,100897.69
2022-09-24T09:48:52.301Z,100894.38
2022-09-24T09:51:23.353Z,100894.28
2022-09-24T09:53:59.958Z,100885.72
2022-09-24T09:56:31.636Z,100895.31
2022-09-24T09:59:08.403Z,100893.50
2022-09-24T10:01:40.624Z,100892.59
2022-09-24T10:04:39.285Z,100887.91
2022-09-24T10:07:10.102Z,100891.34
2022-09-24T10:09:39.650Z,100890.69
2022-09-24T10:12:10.390Z,100885.88
2022-09-24T10:14:40.413Z,100890.44
2022-09-24T10:17:12.643Z,100891.84
2022-09-24T10:19:46.141Z,100884.94
2022-09-24T10:22:21.078Z,100896.72
2022-09-24T10:24:50.904Z,100894.94
2022-09-24T10:27:30.517Z,100895.19
2022-09-24T10:30:19.871Z,100893.81
2022-09-24T10:32:56.920Z,100889.78
2022-09-24T10:35:29.574Z,100890.47
2022-09-24T10:37:59.695Z,100899.66
2022-09-24T10:40:31.282Z,100899.91
2022-09-24T10:43:02.308Z,100898.53
2022-09-24T10:46:15.065Z,100902.69
2022-09-24T10:48:46.523Z,100901.50
2022-09-24T10:51:29.846Z,100907.91
2022-09-24T10:54:15.870Z,100892.13
2022-09-24T10:56:49.557Z,100894.09
2022-09-24T10:59:42.468Z,100898.00
2022-09-24T11:02:39.839Z,100900.81
2022-09-24T11:05:14.190Z,100895.66
2022-09-24T11:07:57.341Z,100895.63
2022-09-24T11:10:51.747Z,100897.72
2022-09-24T11:13:32.424Z,100896.88
2022-09-24T11:16:37.657Z,100900.03
2022-09-24T11:19:17.833Z,100899.38
2022-09-24T11:22:04.145Z,100898.47
2022-09-24T11:24:44.743Z,100903.00
2022-09-24T11:27:35.665Z,100899.41
2022-09-24T11:30:11.481Z,100909.69
2022-09-24T11:32:55.589Z,100902.44
2022-09-24T11:35:36.079Z,100896.44
2022-09-24T11:38:10.234Z,100898.25
2022-09-24T11:40:53.226Z,100897.03
2022-09-24T11:43:50.575Z,100903.03
2022-09-24T11:46:30.582Z,100902.03
2022-09-24T11:49:28.240Z,100904.31
2022-09-24T11:52:05.900Z,100896.50
2022-09-24T11:54:40.304Z,100899.69
2022-09-24T11:57:17.160Z,100895.81
2022-09-24T11:59:54.871Z,100900.06
2022-09-24T12:02:28.955Z,100900.22
2022-09-24T12:05:04.188Z,100909.16
2022-09-24T12:07:39.314Z,100901.06
2022-09-24T12:10:29.786Z,100901.63
2022-09-24T12:13:07.278Z,100903.56
2022-09-24T12:15:46.371Z,100906.69
2022-09-24T12:18:21.241Z,100899.63
2022-09-24T12:20:53.234Z,100893.41
2022-09-24T12:23:28.169Z,100896.63
2022-09-24T12:25:59.512Z,100891.78
2022-09-24T12:28:54.404Z,100890.41
2022-09-24T12:32:01.744Z,100891.16
2022-09-24T12:34:42.903Z,100892.81
2022-09-24T12:37:16.444Z,100887.13
2022-09-24T12:39:53.901Z,100892.06
2022-09-24T12:42:24.062Z,100878.81
2022-09-24T12:44:55.912Z,100878.38
2022-09-24T12:47:27.473Z,100880.50
2022-09-24T12:49:59.241Z,100875.38
2022-09-24T12:52:32.577Z,100877.97
2022-09-24T12:55:04.003Z,100878.75
2022-09-24T12:57:36.621Z,100881.53
2022-09-24T13:00:27.564Z,100875.28
2022-09-24T13:02:56.704Z,100882.97
2022-09-24T13:05:30.416Z,100877.81
2022-09-24T13:08:02.346Z,100878.41
2022-09-24T13:10:34.550Z,100877.34
2022-09-24T13:13:04.953Z,100880.28
2022-09-24T13:15:36.688Z,100879.28
2022-09-24T13:18:24.100Z,100877.03
2022-09-24T13:21:04.528Z,100870.59
2022-09-24T13:23:47.337Z,100872.03
2022-09-24T13:26:30.345Z,100872.31
2022-09-24T13:29:01.028Z,100876.97
2022-09-24T13:31:41.909Z,100875.22
2022-09-24T13:34:21.720Z,100870.69
2022-09-24T13:36:57.720Z,100872.56
2022-09-24T13:39:32.457Z,100874.81
2022-09-24T13:42:09.476Z,100876.75
2022-09-24T13:44:40.689Z,100871.47
2022-09-24T13:47:16.391Z,100873.97
2022-09-24T13:49:49.041Z,100874.69
2022-09-24T13:52:30.521Z,100881.06
2022-09-24T13:55:02.979Z,100877.38
2022-09-24T13:57:43.079Z,100875.81
2022-09-24T14:00:17.245Z,100880.91
2022-09-24T14:02:53.475Z,100882.34
2022-09-24T14:05:22.933Z,100875.97
2022-09-24T14:08:02.707Z,100879.75
2022-09-24T14:10:31.544Z,100876.44
2022-09-24T14:13:19.258Z,100878.53
2022-09-24T14:15:56.052Z,100870.16
2022-09-24T14:18:26.404Z,100875.31
2022-09-24T14:21:01.485Z,100878.88
2022-09-24T14:23:33.722Z,100879.56
2022-09-24T14:26:04.000Z,100874.56
2022-09-24T14:28:35.835Z,100879.81
2022-09-24T14:31:08.917Z,100877.84
2022-09-24T14:33:39.811Z,100877.06
2022-09-24T14:36:13.819Z,100869.25
2022-09-24T14:38:53.778Z,100868.06
2022-09-24T14:41:26.042Z,100873.78
2022-09-24T14:43:59.793Z,100870.72
2022-09-24T14:46:32.564Z,100874.78
2022-09-24T14:49:15.853Z,100873.97
2022-09-24T14:51:54.524Z,100874.81
2022-09-24T14:54:32.051Z,100882.63
2022-09-24T14:57:11.986Z,100883.41
2022-09-24T14:59:42.904Z,100886.50
2022-09-24T15:02:21.744Z,100879.28
2022-09-24T15:04:53.235Z,100874.72
2022-09-24T15:07:27.867Z,100869.72
2022-09-24T15:09:58.478Z,100867.31
2022-09-24T15:12:31.319Z,100868.88
2022-09-24T15:15:03.171Z,100866.25
2022-09-24T15:17:33.825Z,100864.81
2022-09-24T15:20:03.448Z,100869.25
2022-09-24T15:22:32.772Z,100874.66
2022-09-24T15:25:02.530Z,100869.75
2022-09-24T15:27:33.039Z,100872.03
2022-09-24T15:30:05.052Z,100872.56
2022-09-24T15:32:35.942Z,100869.06
2022-09-24T15:35:08.664Z,100869.63
2022-09-24T15:37:40.401Z,100865.81
2022-09-24T15:40:16.858Z,100870.25
2022-09-24T15:42:45.495Z,100865.03
2022-09-24T15:45:21.234Z,100866.03
2022-09-24T15:47:50.783Z,100861.97
2022-09-24T15:50:20.333Z,100865.56
2022-09-24T15:52:53.348Z,100875.06
2022-09-24T15:55:23.454Z,100872.59
2022-09-24T15:57:52.269Z,100873.81
2022-09-24T16:00:24.029Z,100875.00
2022-09-24T16:02:54.797Z,100870.91
2022-09-24T16:05:24.054Z,100876.28
2022-09-24T16:07:52.584Z,100874.28
2022-09-24T16:10:21.176Z,100881.94
2022-09-24T16:12:49.766Z,100886.16
2022-09-24T16:15:19.006Z,100877.06
2022-09-24T16:17:50.912Z,100890.03
2022-09-24T16:20:19.639Z,100894.47
2022-09-24T16:22:48.160Z,100893.50
2022-09-24T16:25:16.865Z,100896.50
2022-09-24T16:27:45.628Z,100897.84
2022-09-24T16:30:14.362Z,100890.28
2022-09-24T16:32:42.940Z,100894.91
2022-09-24T16:35:13.419Z,100898.31
2022-09-24T16:37:42.204Z,100897.81
2022-09-24T16:40:12.086Z,100897.38
2022-09-24T16:42:40.705Z,100903.94
2022-09-24T16:45:12.514Z,100897.75
2022-09-24T16:47:41.094Z,100906.94
2022-09-24T16:50:10.642Z,100908.38
2022-09-24T16:52:40.560Z,100907.97
2022-09-24T16:55:10.184Z,100902.94
2022-09-24T16:57:39.224Z,100911.16
2022-09-24T17:00:09.454Z,100912.41
2022-09-24T17:02:38.167Z,100905.81
2022-09-24T17:05:07.888Z,100914.63
2022-09-24T17:07:36.522Z,100910.84
2022-09-24T17:10:15.875Z,100918.66
2022-09-24T17:12:46.488Z,100916.97
2022-09-24T17:15:16.326Z,100913.91
2022-09-24T17:17:49.990Z,100920.88
2022-09-24T17:20:20.247Z,100921.72
2022-09-24T17:22:49.835Z,100919.50
2022-09-24T17:25:19.873Z,100918.03
2022-09-24T17:27:48.399Z,100920.06
2022-09-24T17:30:17.100Z,100926.38
2022-09-24T17:32:45.637Z,100924.44
2022-09-24T17:35:14.884Z,100923.28
2022-09-24T17:37:45.211Z,100926.97
2022-09-24T17:40:19.930Z,100925.50
2022-09-24T17:42:52.997Z,100928.00
2022-09-24T17:45:22.622Z,100932.53
2022-09-24T17:47:57.055Z,100937.44
2022-09-24T17:50:25.733Z,100935.19
2022-09-24T17:52:54.268Z,100930.19
2022-09-24T17:55:22.832Z,100939.09
2022-09-24T17:57:52.715Z,100933.22
2022-09-24T18:00:21.347Z,100938.59
2022-09-24T18:02:49.992Z,100931.97
2022-09-24T18:05:18.743Z,100936.50
2022-09-24T18:07:47.313Z,100940.72
2022-09-24T18:10:17.304Z,100938.91
2022-09-24T18:12:45.907Z,100942.09
2022-09-24T18:15:16.024Z,100942.09
2022-09-24T18:17:44.565Z,100950.41
2022-09-24T18:20:13.112Z,100952.19
2022-09-24T18:22:41.689Z,100960.72
2022-09-24T18:25:11.455Z,100969.38
2022-09-24T18:27:40.004Z,100959.66
2022-09-24T18:30:11.751Z,100965.66
2022-09-24T18:32:41.750Z,100966.00
2022-09-24T18:35:11.047Z,100966.19
2022-09-24T18:37:39.936Z,100968.97
2022-09-24T18:40:10.334Z,100964.44
2022-09-24T18:42:38.925Z,100973.06
2022-09-24T18:45:08.454Z,100971.69
2022-09-24T18:47:39.179Z,100971.13
2022-09-24T18:50:10.392Z,100978.91
2022-09-24T18:52:38.937Z,100974.56
2022-09-24T18:55:08.806Z,100970.91
2022-09-24T18:57:37.865Z,100974.63
2022-09-24T19:00:28.369Z,100978.06
2022-09-24T19:02:57.008Z,100978.63
2022-09-24T19:05:27.165Z,100977.41
2022-09-24T19:07:55.764Z,100975.00
2022-09-24T19:10:24.349Z,100981.13
2022-09-24T19:12:55.319Z,100980.06
2022-09-24T19:15:25.141Z,100984.56
2022-09-24T19:17:54.157Z,100985.09
2022-09-24T19:20:22.926Z,100990.44
2022-09-24T19:23:00.189Z,100986.09
2022-09-24T19:25:29.242Z,100985.06
2022-09-24T19:27:57.946Z,100989.84
2022-09-24T19:30:27.629Z,100987.84
2022-09-24T19:32:56.245Z,100993.97
2022-09-24T19:35:24.803Z,100992.03
2022-09-24T19:37:54.777Z,100996.19
2022-09-24T19:40:23.463Z,100994.47
2022-09-24T19:42:52.769Z,100991.00
2022-09-24T19:45:21.345Z,100990.44
2022-09-24T19:47:51.540Z,100998.56
2022-09-24T19:50:20.106Z,100992.66
2022-09-24T19:52:49.154Z,100993.78
2022-09-24T19:55:19.064Z,100993.22
2022-09-24T19:57:47.621Z,100989.31
2022-09-24T20:00:16.491Z,100990.72
2022-09-24T20:02:45.077Z,100999.09
2022-09-24T20:05:13.667Z,101000.47
2022-09-24T20:07:42.542Z,100994.31
2022-09-24T20:10:11.795Z,100995.66
2022-09-24T20:12:46.581Z,100998.63
2022-09-24T20:15:15.204Z,100991.31
2022-09-24T20:17:43.755Z,100995.13
2022-09-24T20:20:12.412Z,101002.34
2022-09-24T20:22:40.994Z,101001.75
2022-09-24T20:25:11.648Z,101000.34
2022-09-24T20:27:52.791Z,101005.06
2022-09-24T20:30:23.597Z,101007.16
2022-09-24T20:32:52.178Z,101008.59
2022-09-24T20:35:20.940Z,101022.25
2022-09-24T20:37:50.122Z,101018.41
2022-09-24T20:40:18.808Z,101023.53
2022-09-24T20:42:49.279Z,101012.44
2022-09-24T20:45:18.096Z,101008.31
2022-09-24T20:47:49.977Z,101009.19
2022-09-24T20:50:19.000Z,101006.44
2022-09-24T20:52:47.574Z,101011.03
2022-09-24T20:55:16.419Z,101015.28
2022-09-24T20:57:45.450Z,101018.41
2022-09-24T21:00:16.168Z,101013.81
2022-09-24T21:02:45.074Z,101011.88
2022-09-24T21:05:13.736Z,101015.47
2022-09-24T21:07:42.826Z,101013.25
2022-09-24T21:10:13.482Z,101013.91
2022-09-24T21:12:43.625Z,101019.72
2022-09-24T21:15:15.540Z,101014.09
2022-09-24T21:17:59.401Z,101012.53
2022-09-24T21:20:33.212Z,101017.22
2022-09-24T21:23:01.788Z,101013.09
2022-09-24T21:25:53.399Z,101024.00
2022-09-24T21:28:19.723Z,101030.25
2022-09-24T21:31:03.340Z,101025.53
2022-09-24T21:33:32.503Z,101025.19
2022-09-24T21:36:02.051Z,101038.09
2022-09-24T21:38:31.064Z,101029.03
2022-09-24T21:41:01.403Z,101025.13
2022-09-24T21:43:34.582Z,101028.84
2022-09-24T21:46:07.032Z,101032.72
2022-09-24T21:48:36.246Z,101029.16
2022-09-24T21:51:07.194Z,101032.03
2022-09-24T21:53:36.594Z,101026.03
2022-09-24T21:56:07.105Z,101022.94
2022-09-24T21:58:36.929Z,101031.34
2022-09-24T22:01:16.475Z,101027.09
2022-09-24T22:03:46.798Z,101014.81
2022-09-24T22:06:16.141Z,101031.28
2022-09-24T22:08:47.138Z,101024.50
2022-09-24T22:11:17.953Z,101037.31
2022-09-24T22:13:46.891Z,101037.19
2022-09-24T22:16:17.136Z,101028.34
2022-09-24T22:18:45.662Z,101033.00
2022-09-24T22:21:16.848Z,101023.19
2022-09-24T22:23:45.480Z,101023.84
2022-09-24T22:26:14.923Z,101032.72
2022-09-24T22:28:43.772Z,101028.09
2022-09-24T22:31:15.547Z,101025.25
2022-09-24T22:34:03.299Z,101024.41
2022-09-24T22:36:33.274Z,101023.78
2022-09-24T22:39:03.328Z,101029.25
2022-09-24T22:41:32.709Z,101036.97
2022-09-24T22:44:01.262Z,101036.47
2022-09-24T22:46:30.528Z,101033.59
2022-09-24T22:49:01.503Z,101031.63
2022-09-24T22:51:31.047Z,101030.38
2022-09-24T22:54:00.325Z,101039.94
2022-09-24T22:56:30.088Z,101033.50
2022-09-24T22:59:00.341Z,101034.41
2022-09-24T23:01:31.411Z,101041.44
2022-09-24T23:04:02.562Z,101032.03
2022-09-24T23:06:32.897Z,101026.09
2022-09-24T23:09:02.147Z,101041.34
2022-09-24T23:11:32.765Z,101031.88
2022-09-24T23:14:03.403Z,101036.22
2022-09-24T23:16:35.472Z,101035.66
2022-09-24T23:19:07.597Z,101027.84
2022-09-24T23:21:37.326Z,101027.16
2022-09-24T23:24:08.073Z,101027.16
2022-09-24T23:26:36.850Z,101031.16
2022-09-24T23:29:06.821Z,101035.59
2022-09-24T23:31:37.071Z,101034.97
2022-09-24T23:34:07.976Z,101036.84
2022-09-24T23:36:37.412Z,101028.44
2022-09-24T23:39:06.537Z,101028.81
2022-09-24T23:41:35.202Z,101031.41
2022-09-24T23:44:04.340Z,101030.06
2022-09-24T23:46:34.209Z,101039.59
2022-09-24T23:49:02.985Z,101035.31
2022-09-24T23:51:33.051Z,101041.91
2022-09-24T23:54:01.696Z,101027.94
2022-09-24T23:56:30.279Z,101034.00
2022-09-24T23:58:58.844Z,101035.25
